createdAt,value
2022-09-08T00:02:12.300Z,99266.25
2022-09-08T00:05:00.014Z,99272.59
2022-09-08T00:07:48.797Z,99250.22
2022-09-08T00:10:38.072Z,99251.22
2022-09-08T00:13:28.587Z,99265.97
2022-09-08T00:16:21.085Z,99260.13
2022-09-08T00:19:09.243Z,99270.81
2022-09-08T00:21:57.872Z,99267.47
2022-09-08T00:24:45.806Z,99273.28
2022-09-08T00:27:33.675Z,99267.16
2022-09-08T00:30:21.724Z,99278.34
2022-09-08T00:33:09.553Z,99255.06
2022-09-08T00:35:58.042Z,99288.41
2022-09-08T00:38:54.574Z,99351.34
2022-09-08T00:41:42.943Z,99367.88
2022-09-08T00:44:51.194Z,99352.09
2022-09-08T00:47:48.732Z,99345.47
2022-09-08T00:50:36.472Z,99335.03
2022-09-08T00:53:24.183Z,99334.78
2022-09-08T00:56:12.858Z,99327.16
2022-09-08T00:59:02.741Z,99336.56
2022-09-08T01:01:51.561Z,99345.75
2022-09-08T01:04:39.592Z,99335.56
2022-09-08T01:08:17.376Z,99331.75
2022-09-08T01:11:40.845Z,99322.31
2022-09-08T01:14:51.798Z,99329.19
2022-09-08T01:17:39.632Z,99303.75
2022-09-08T01:20:54.421Z,99327.66
2022-09-08T01:24:00.482Z,99308.31
2022-09-08T01:27:12.089Z,99291.75
2022-09-08T01:30:04.943Z,99297.84
2022-09-08T01:32:53.091Z,99295.53
2022-09-08T01:35:41.474Z,99302.94
2022-09-08T01:38:29.725Z,99292.50
2022-09-08T01:41:17.879Z,99296.56
2022-09-08T01:44:06.122Z,99286.91
2022-09-08T01:46:53.907Z,99285.88
2022-09-08T01:49:41.708Z,99297.81
2022-09-08T01:52:29.480Z,99298.06
2022-09-08T01:55:17.764Z,99288.66
2022-09-08T01:58:05.860Z,99276.91
2022-09-08T02:00:53.736Z,99249.47
2022-09-08T02:03:42.300Z,99279.22
2022-09-08T02:06:30.981Z,99276.13
2022-09-08T02:09:18.727Z,99270.06
2022-09-08T02:12:06.672Z,99276.16
2022-09-08T02:14:55.418Z,99284.59
2022-09-08T02:17:43.213Z,99270.34
2022-09-08T02:20:31.010Z,99256.09
2022-09-08T02:23:18.745Z,99259.38
2022-09-08T02:26:07.665Z,99263.16
2022-09-08T02:28:56.088Z,99252.50
2022-09-08T02:31:43.816Z,99255.28
2022-09-08T02:34:31.703Z,99257.00
2022-09-08T02:37:20.215Z,99252.41
2022-09-08T02:40:09.359Z,99233.56
2022-09-08T02:42:57.485Z,99239.63
2022-09-08T02:45:47.193Z,99234.78
2022-09-08T02:48:35.504Z,99209.13
2022-09-08T02:51:23.636Z,99236.06
2022-09-08T02:54:11.376Z,99220.03
2022-09-08T02:56:59.201Z,99219.81
2022-09-08T02:59:46.973Z,99227.03
2022-09-08T03:02:34.710Z,99239.50
2022-09-08T03:05:22.468Z,99238.50
2022-09-08T03:08:10.640Z,99230.38
2022-09-08T03:10:58.704Z,99229.38
2022-09-08T03:13:46.640Z,99246.66
2022-09-08T03:16:34.739Z,99241.06
2022-09-08T03:19:22.446Z,99236.25
2022-09-08T03:22:10.577Z,99218.44
2022-09-08T03:24:58.372Z,99225.56
2022-09-08T03:27:46.401Z,99222.25
2022-09-08T03:30:34.457Z,99214.13
2022-09-08T03:33:22.722Z,99199.38
2022-09-08T03:36:13.858Z,99198.38
2022-09-08T03:39:03.023Z,99219.72
2022-09-08T03:41:51.078Z,99212.34
2022-09-08T03:44:38.806Z,99221.72
2022-09-08T03:47:26.525Z,99227.81
2022-09-08T03:50:17.582Z,99205.41
2022-09-08T03:53:05.440Z,99216.88
2022-09-08T03:55:53.337Z,99211.75
2022-09-08T03:58:42.117Z,99226.53
2022-09-08T04:01:29.926Z,99218.38
2022-09-08T04:04:17.796Z,99211.75
2022-09-08T04:07:05.622Z,99214.81
2022-09-08T04:09:53.717Z,99204.38
2022-09-08T04:12:41.488Z,99185.81
2022-09-08T04:15:29.489Z,99207.72
2022-09-08T04:18:17.373Z,99194.97
2022-09-08T04:21:06.059Z,99190.41
2022-09-08T04:23:54.451Z,99213.06
2022-09-08T04:26:42.338Z,99202.63
2022-09-08T04:29:30.083Z,99217.63
2022-09-08T04:32:19.008Z,99201.59
2022-09-08T04:35:08.197Z,99189.88
2022-09-08T04:37:55.966Z,99190.66
2022-09-08T04:40:43.808Z,99189.09
2022-09-08T04:43:33.547Z,99200.03
2022-09-08T04:46:22.001Z,99203.59
2022-09-08T04:49:09.880Z,99188.59
2022-09-08T04:51:57.632Z,99161.91
2022-09-08T04:54:45.549Z,99182.00
2022-09-08T04:57:33.321Z,99194.47
2022-09-08T05:00:21.196Z,99199.78
2022-09-08T05:03:08.883Z,99193.19
2022-09-08T05:05:56.981Z,99211.78
2022-09-08T05:08:51.153Z,99211.00
2022-09-08T05:11:38.882Z,99212.81
2022-09-08T05:14:26.570Z,99208.97
2022-09-08T05:17:14.444Z,99218.69
2022-09-08T05:20:02.836Z,99212.56
2022-09-08T05:22:50.696Z,99208.75
2022-09-08T05:25:38.585Z,99210.03
2022-09-08T05:28:28.566Z,99206.97
2022-09-08T05:31:20.626Z,99197.31
2022-09-08T05:34:10.225Z,99203.94
2022-09-08T05:36:58.313Z,99192.75
2022-09-08T05:39:47.926Z,99190.97
2022-09-08T05:42:35.753Z,99190.16
2022-09-08T05:45:23.662Z,99192.47
2022-09-08T05:48:11.681Z,99186.88
2022-09-08T05:50:59.946Z,99174.16
2022-09-08T05:53:49.165Z,99175.94
2022-09-08T05:56:37.004Z,99171.09
2022-09-08T05:59:24.885Z,99174.41
2022-09-08T06:02:13.464Z,99184.06
2022-09-08T06:05:01.578Z,99181.03
2022-09-08T06:07:50.118Z,99194.00
2022-09-08T06:10:38.765Z,99186.38
2022-09-08T06:13:27.850Z,99201.66
2022-09-08T06:16:16.275Z,99213.38
2022-09-08T06:19:04.475Z,99206.50
2022-09-08T06:21:52.305Z,99206.00
2022-09-08T06:24:40.117Z,99198.88
2022-09-08T06:27:42.824Z,99224.03
2022-09-08T06:30:48.429Z,99204.97
2022-09-08T06:33:42.783Z,99208.03
2022-09-08T06:36:50.613Z,99213.09
2022-09-08T06:39:45.819Z,99235.28
2022-09-08T06:43:05.008Z,99240.38
2022-09-08T06:45:57.105Z,99230.47
2022-09-08T06:48:44.973Z,99225.13
2022-09-08T06:52:02.142Z,99234.75
2022-09-08T06:55:03.839Z,99214.16
2022-09-08T06:58:25.880Z,99233.50
2022-09-08T07:01:32.354Z,99242.91
2022-09-08T07:04:48.078Z,99235.53
2022-09-08T07:08:15.578Z,99227.66
2022-09-08T07:11:37.253Z,99230.94
2022-09-08T07:15:23.289Z,99230.44
2022-09-08T07:18:31.495Z,99232.22
2022-09-08T07:21:44.545Z,99235.03
2022-09-08T07:24:38.436Z,99239.63
2022-09-08T07:27:26.991Z,99233.75
2022-09-08T07:30:18.293Z,99236.56
2022-09-08T07:33:33.450Z,99227.91
2022-09-08T07:36:46.520Z,99240.63
2022-09-08T07:39:40.430Z,99239.34
2022-09-08T07:42:32.350Z,99248.50
2022-09-08T07:45:20.480Z,99240.88
2022-09-08T07:48:29.776Z,99238.09
2022-09-08T07:51:20.615Z,99250.53
2022-09-08T07:54:34.532Z,99254.34
2022-09-08T07:57:57.362Z,99260.47
2022-09-08T08:01:12.755Z,99241.13
2022-09-08T08:04:19.870Z,99255.66
2022-09-08T08:07:17.932Z,99262.25
2022-09-08T08:10:24.122Z,99271.66
2022-09-08T08:13:17.586Z,99277.78
2022-09-08T08:16:16.286Z,99259.94
2022-09-08T08:19:20.795Z,99282.09
2022-09-08T08:22:28.553Z,99271.66
2022-09-08T08:25:37.804Z,99278.53
2022-09-08T08:28:25.580Z,99287.16
2022-09-08T08:31:37.693Z,99294.69
2022-09-08T08:34:30.612Z,99294.16
2022-09-08T08:37:26.742Z,99296.94
2022-09-08T08:40:37.250Z,99282.63
2022-09-08T08:44:22.333Z,99292.31
2022-09-08T08:47:19.122Z,99294.91
2022-09-08T08:50:58.786Z,99311.03
2022-09-08T08:54:16.118Z,99303.66
2022-09-08T08:57:34.483Z,99307.53
2022-09-08T09:00:39.771Z,99316.94
2022-09-08T09:04:15.385Z,99315.16
2022-09-08T09:07:45.242Z,99331.38
2022-09-08T09:10:55.698Z,99324.41
2022-09-08T09:14:02.355Z,99327.44
2022-09-08T09:17:12.319Z,99329.41
2022-09-08T09:20:20.740Z,99328.75
2022-09-08T09:23:41.238Z,99317.97
2022-09-08T09:26:36.566Z,99316.47
2022-09-08T09:29:28.052Z,99319.28
2022-09-08T09:32:49.724Z,99309.69
2022-09-08T09:36:17.731Z,99319.09
2022-09-08T09:39:45.575Z,99323.56
2022-09-08T09:42:57.253Z,99309.56
2022-09-08T09:46:21.713Z,99320.66
2022-09-08T09:49:58.605Z,99319.97
2022-09-08T09:53:30.207Z,99306.34
2022-09-08T09:56:43.848Z,99327.50
2022-09-08T10:00:09.553Z,99331.13
2022-09-08T10:03:35.561Z,99335.44
2022-09-08T10:07:02.495Z,99339.00
2022-09-08T10:10:30.714Z,99328.97
2022-09-08T10:13:52.495Z,99325.06
2022-09-08T10:17:31.010Z,99327.28
2022-09-08T10:20:51.093Z,99330.94
2022-09-08T10:24:15.917Z,99329.47
2022-09-08T10:27:38.696Z,99321.22
2022-09-08T10:30:47.608Z,99330.63
2022-09-08T10:34:07.427Z,99332.69
2022-09-08T10:37:11.009Z,99328.75
2022-09-08T10:40:35.076Z,99334.38
2022-09-08T10:43:28.384Z,99343.03
2022-09-08T10:46:52.661Z,99335.22
2022-09-08T10:50:11.492Z,99314.63
2022-09-08T10:53:26.173Z,99330.06
2022-09-08T10:56:15.137Z,99328.00
2022-09-08T10:59:46.669Z,99333.44
2022-09-08T11:02:32.640Z,99331.34
2022-09-08T11:05:35.788Z,99336.66
2022-09-08T11:08:51.548Z,99342.63
2022-09-08T11:12:19.295Z,99349.34
2022-09-08T11:15:26.047Z,99341.19
2022-09-08T11:18:37.924Z,99347.31
2022-09-08T11:21:32.892Z,99331.25
2022-09-08T11:24:51.026Z,99343.09
2022-09-08T11:27:47.683Z,99340.56
2022-09-08T11:30:48.106Z,99351.50
2022-09-08T11:34:23.391Z,99345.13
2022-09-08T11:37:36.673Z,99351.09
2022-09-08T11:40:56.958Z,99348.34
2022-09-08T11:44:17.348Z,99327.06
2022-09-08T11:47:17.053Z,99358.06
2022-09-08T11:50:48.168Z,99357.19
2022-09-08T11:54:33.276Z,99360.47
2022-09-08T11:57:50.967Z,99313.75
2022-09-08T12:01:16.425Z,99363.06
2022-09-08T12:04:22.566Z,99370.13
2022-09-08T12:07:37.036Z,99354.38
2022-09-08T12:11:06.613Z,99363.09
2022-09-08T12:13:57.022Z,99365.38
2022-09-08T12:16:50.618Z,99369.13
2022-09-08T12:20:23.742Z,99366.03
2022-09-08T12:23:41.245Z,99362.53
2022-09-08T12:27:15.845Z,99355.06
2022-09-08T12:30:47.572Z,99350.13
2022-09-08T12:33:55.365Z,99366.41
2022-09-08T12:36:51.120Z,99350.72
2022-09-08T12:40:32.381Z,99369.16
2022-09-08T12:43:24.596Z,99367.59
2022-09-08T12:46:24.119Z,99355.81
2022-09-08T12:49:45.661Z,99350.88
2022-09-08T12:52:47.606Z,99354.50
2022-09-08T12:55:50.482Z,99341.56
2022-09-08T12:59:10.851Z,99362.50
2022-09-08T13:02:36.011Z,99356.91
2022-09-08T13:05:35.967Z,99350.91
2022-09-08T13:09:00.508Z,99350.00
2022-09-08T13:12:04.677Z,99346.31
2022-09-08T13:15:03.419Z,99341.66
2022-09-08T13:18:09.053Z,99343.94
2022-09-08T13:21:33.279Z,99340.13
2022-09-08T13:24:46.226Z,99336.00
2022-09-08T13:28:09.240Z,99334.72
2022-09-08T13:32:03.978Z,99342.00
2022-09-08T13:35:35.400Z,99338.75
2022-09-08T13:38:58.582Z,99338.03
2022-09-08T13:42:44.736Z,99333.31
2022-09-08T13:45:49.702Z,99334.00
2022-09-08T13:49:03.430Z,99332.59
2022-09-08T13:52:24.930Z,99326.09
2022-09-08T13:55:44.025Z,99327.34
2022-09-08T13:58:51.034Z,99320.72
2022-09-08T14:01:44.999Z,99308.16
2022-09-08T14:04:43.644Z,99309.72
2022-09-08T14:07:35.333Z,99303.59
2022-09-08T14:10:41.980Z,99331.28
2022-09-08T14:13:35.908Z,99314.78
2022-09-08T14:16:31.566Z,99319.56
2022-09-08T14:20:00.811Z,99320.44
2022-09-08T14:23:23.554Z,99332.03
2022-09-08T14:26:55.365Z,99326.91
2022-09-08T14:30:22.863Z,99334.69
2022-09-08T14:33:20.083Z,99318.50
2022-09-08T14:36:53.865Z,99328.25
2022-09-08T14:40:13.427Z,99325.88
2022-09-08T14:43:34.694Z,99323.19
2022-09-08T14:47:06.429Z,99299.88
2022-09-08T14:50:18.135Z,99309.34
2022-09-08T14:53:36.746Z,99327.59
2022-09-08T14:56:38.198Z,99315.56
2022-09-08T14:59:28.991Z,99317.50
2022-09-08T15:02:38.641Z,99307.63
2022-09-08T15:05:33.535Z,99325.38
2022-09-08T15:08:32.281Z,99317.13
2022-09-08T15:11:32.084Z,99325.47
2022-09-08T15:14:30.280Z,99312.00
2022-09-08T15:17:36.211Z,99320.75
2022-09-08T15:20:33.258Z,99340.28
2022-09-08T15:23:29.022Z,99336.66
2022-09-08T15:26:31.515Z,99341.81
2022-09-08T15:29:36.840Z,99328.75
2022-09-08T15:32:45.986Z,99348.66
2022-09-08T15:36:17.301Z,99332.38
2022-09-08T15:39:33.611Z,99335.06
2022-09-08T15:42:59.166Z,99352.75
2022-09-08T15:46:13.094Z,99336.56
2022-09-08T15:49:29.720Z,99322.88
2022-09-08T15:52:50.646Z,99319.81
2022-09-08T15:56:31.452Z,99327.28
2022-09-08T16:00:13.632Z,99343.66
2022-09-08T16:03:03.205Z,99349.16
2022-09-08T16:05:56.859Z,99348.16
2022-09-08T16:09:08.899Z,99336.91
2022-09-08T16:12:07.598Z,99337.44
2022-09-08T16:15:46.290Z,99331.88
2022-09-08T16:18:55.158Z,99342.28
2022-09-08T16:22:14.313Z,99332.41
2022-09-08T16:25:06.377Z,99330.13
2022-09-08T16:28:03.700Z,99322.28
2022-09-08T16:31:27.012Z,99332.63
2022-09-08T16:34:25.519Z,99330.44
2022-09-08T16:37:28.307Z,99326.41
2022-09-08T16:40:19.534Z,99331.31
2022-09-08T16:43:20.055Z,99330.41
2022-09-08T16:46:36.123Z,99335.44
2022-09-08T16:49:40.891Z,99342.66
2022-09-08T16:52:44.315Z,99336.94
2022-09-08T16:55:57.714Z,99336.75
2022-09-08T16:59:26.368Z,99349.25
2022-09-08T17:02:40.913Z,99329.50
2022-09-08T17:05:44.605Z,99344.31
2022-09-08T17:08:32.369Z,99354.34
2022-09-08T17:11:29.694Z,99322.63
2022-09-08T17:14:17.428Z,99325.47
2022-09-08T17:17:28.334Z,99344.75
2022-09-08T17:20:33.230Z,99350.38
2022-09-08T17:23:33.627Z,99340.25
2022-09-08T17:27:04.041Z,99345.41
2022-09-08T17:30:05.067Z,99340.06
2022-09-08T17:33:18.371Z,99328.13
2022-09-08T17:36:30.145Z,99342.38
2022-09-08T17:39:43.403Z,99327.88
2022-09-08T17:43:05.144Z,99344.41
2022-09-08T17:46:49.085Z,99346.75
2022-09-08T17:49:52.223Z,99351.22
2022-09-08T17:52:48.838Z,99355.56
2022-09-08T17:56:07.728Z,99352.34
2022-09-08T17:59:13.519Z,99342.50
2022-09-08T18:02:54.125Z,99349.44
2022-09-08T18:05:48.848Z,99344.69
2022-09-08T18:08:40.531Z,99362.53
2022-09-08T18:11:44.531Z,99322.34
2022-09-08T18:15:20.388Z,99358.47
2022-09-08T18:18:25.266Z,99369.94
2022-09-08T18:21:42.080Z,99372.28
2022-09-08T18:24:35.366Z,99369.75
2022-09-08T18:27:49.322Z,99383.25
2022-09-08T18:30:43.420Z,99379.19
2022-09-08T18:34:13.789Z,99381.50
2022-09-08T18:37:20.389Z,99390.41
2022-09-08T18:40:12.549Z,99385.31
2022-09-08T18:43:17.541Z,99389.38
2022-09-08T18:46:33.983Z,99405.66
2022-09-08T18:49:38.553Z,99403.13
2022-09-08T18:52:46.708Z,99412.28
2022-09-08T18:55:42.997Z,99406.44
2022-09-08T18:59:14.100Z,99413.56
2022-09-08T19:02:20.242Z,99416.34
2022-09-08T19:05:18.398Z,99408.47
2022-09-08T19:08:49.265Z,99423.00
2022-09-08T19:11:42.246Z,99418.97
2022-09-08T19:14:48.665Z,99425.59
2022-09-08T19:17:56.648Z,99425.09
2022-09-08T19:21:02.388Z,99431.47
2022-09-08T19:24:20.066Z,99419.75
2022-09-08T19:27:28.040Z,99432.50
2022-09-08T19:30:34.674Z,99428.69
2022-09-08T19:34:05.206Z,99434.81
2022-09-08T19:36:56.191Z,99430.50
2022-09-08T19:40:16.822Z,99430.22
2022-09-08T19:43:10.862Z,99429.75
2022-09-08T19:46:22.971Z,99416.78
2022-09-08T19:49:12.222Z,99419.06
2022-09-08T19:52:01.360Z,99419.34
2022-09-08T19:54:55.471Z,99414.50
2022-09-08T19:57:54.821Z,99422.91
2022-09-08T20:00:46.437Z,99429.53
2022-09-08T20:03:35.054Z,99421.41
2022-09-08T20:06:30.903Z,99421.13
2022-09-08T20:09:30.101Z,99415.03
2022-09-08T20:12:29.151Z,99403.28
2022-09-08T20:15:20.665Z,99415.78
2022-09-08T20:18:08.290Z,99421.88
2022-09-08T20:21:13.763Z,99413.72
2022-09-08T20:24:18.672Z,99417.06
2022-09-08T20:27:15.069Z,99416.78
2022-09-08T20:30:14.367Z,99416.25
2022-09-08T20:33:20.842Z,99412.44
2022-09-08T20:36:36.999Z,99414.22
2022-09-08T20:39:54.416Z,99413.97
2022-09-08T20:43:18.642Z,99410.41
2022-09-08T20:55:08.948Z,99407.84
2022-09-08T20:58:17.642Z,99420.56
2022-09-08T21:01:20.584Z,99422.59
2022-09-08T21:04:33.532Z,99413.97
2022-09-08T21:07:45.860Z,99423.88
2022-09-08T21:10:43.077Z,99422.59
2022-09-08T21:13:36.563Z,99421.59
2022-09-08T21:16:27.174Z,99415.47
2022-09-08T21:19:23.344Z,99423.09
2022-09-08T21:22:41.301Z,99423.09
2022-09-08T21:25:43.721Z,99428.97
2022-09-08T21:28:40.393Z,99418.25
2022-09-08T21:31:59.293Z,99434.81
2022-09-08T21:35:19.146Z,99421.56
2022-09-08T21:38:37.952Z,99403.16
2022-09-08T21:41:29.133Z,99433.97
2022-09-08T21:44:35.630Z,99428.13
2022-09-08T21:47:33.922Z,99430.13
2022-09-08T21:50:29.175Z,99427.53
2022-09-08T21:53:31.094Z,99435.16
2022-09-08T21:56:32.763Z,99435.88
2022-09-08T21:59:26.352Z,99440.50
2022-09-08T22:02:25.856Z,99441.06
2022-09-08T22:05:18.392Z,99430.38
2022-09-08T22:08:21.035Z,99425.81
2022-09-08T22:11:11.639Z,99440.59
2022-09-08T22:14:14.783Z,99440.59
2022-09-08T22:17:11.800Z,99442.91
2022-09-08T22:20:17.161Z,99425.34
2022-09-08T22:23:50.130Z,99433.22
2022-09-08T22:26:54.028Z,99427.88
2022-09-08T22:30:01.613Z,99432.78
2022-09-08T22:33:00.247Z,99436.06
2022-09-08T22:36:17.324Z,99430.75
2022-09-08T22:39:36.324Z,99417.22
2022-09-08T22:43:08.720Z,99425.16
2022-09-08T22:46:14.618Z,99425.38
2022-09-08T22:49:13.155Z,99426.66
2022-09-08T22:52:13.071Z,99437.59
2022-09-08T22:55:02.662Z,99432.25
2022-09-08T22:58:11.474Z,99431.00
2022-09-08T23:01:13.063Z,99414.94
2022-09-08T23:04:09.582Z,99423.59
2022-09-08T23:07:46.449Z,99434.56
2022-09-08T23:10:34.572Z,99415.66
2022-09-08T23:13:41.661Z,99422.06
2022-09-08T23:16:54.244Z,99435.81
2022-09-08T23:20:18.843Z,99429.94
2022-09-08T23:23:25.465Z,99442.63
2022-09-08T23:26:44.298Z,99439.53
2022-09-08T23:30:00.554Z,99434.41
2022-09-08T23:32:48.585Z,99420.69
2022-09-08T23:35:42.733Z,99432.63
2022-09-08T23:38:30.486Z,99418.56
2022-09-08T23:41:20.374Z,99431.25
2022-09-08T23:44:21.668Z,99427.16
2022-09-08T23:47:31.109Z,99424.34
2022-09-08T23:50:21.881Z,99426.88
2022-09-08T23:53:15.535Z,99421.81
2022-09-08T23:56:09.018Z,99421.81
2022-09-08T23:58:57.281Z,99416.19
